Bermeo, Spain
Current Conditions -  °F | °C
As of 10:00 PM on Sunday 23 Nov 2014 (Local Time) from LEBB Reporting Station
Scattered Clouds Scattered Clouds  
Wind Chill: 61°   Ceiling: Unl
Heat Index: 61°   Visibility: 6mi
Dew Point: 59°   Wind: 1mph
Humidity: 94%   Direction: NA
Pressure: 30"   Gusts: NA
Location:  43.42°N, 2.72°W
Report Text: LEBB 232100Z VRB01KT 9000 SCT008 SCT015 16/15 Q1016 NOSIG
Loading
Personal Weather Stations






























Interactive Weather Map New forecast layout! Learn more

10-Day Weather Forecast

Advertisements
Track Severe Weather on mobile